sensor_id;sensor_type;location;lat;lon;timestamp;temperature;humidity
15217;DHT22;7711;46.634;14.318;2024-03-02T00:01:35;6.80;1.00
15217;DHT22;7711;46.634;14.318;2024-03-02T00:04:03;6.90;1.00
15217;DHT22;7711;46.634;14.318;2024-03-02T00:06:33;6.80;1.00
15217;DHT22;7711;46.634;14.318;2024-03-02T00:09:00;6.90;1.00
15217;DHT22;7711;46.634;14.318;2024-03-02T00:11:27;6.90;1.00
15217;DHT22;7711;46.634;14.318;2024-03-02T00:13:54;6.90;1.00
15217;DHT22;7711;46.634;14.318;2024-03-02T00:16:22;6.90;1.00
15217;DHT22;7711;46.634;14.318;2024-03-02T00:18:49;6.90;1.00
15217;DHT22;7711;46.634;14.318;2024-03-02T00:21:16;6.90;1.00
15217;DHT22;7711;46.634;14.318;2024-03-02T00:23:48;6.90;1.00
15217;DHT22;7711;46.634;14.318;2024-03-02T00:26:16;6.90;1.00
15217;DHT22;7711;46.634;14.318;2024-03-02T00:28:43;6.90;1.00
15217;DHT22;7711;46.634;14.318;2024-03-02T00:31:12;6.90;1.00
15217;DHT22;7711;46.634;14.318;2024-03-02T00:33:41;6.90;1.00
15217;DHT22;7711;46.634;14.318;2024-03-02T00:36:09;6.90;1.00
15217;DHT22;7711;46.634;14.318;2024-03-02T00:38:44;6.90;1.00
15217;DHT22;7711;46.634;14.318;2024-03-02T00:41:17;7.00;1.00
15217;DHT22;7711;46.634;14.318;2024-03-02T00:43:56;7.00;1.00
15217;DHT22;7711;46.634;14.318;2024-03-02T00:46:24;7.00;1.00
15217;DHT22;7711;46.634;14.318;2024-03-02T00:48:53;7.00;1.00
15217;DHT22;7711;46.634;14.318;2024-03-02T00:51:21;6.90;1.00
15217;DHT22;7711;46.634;14.318;2024-03-02T00:53:48;7.00;1.00
15217;DHT22;7711;46.634;14.318;2024-03-02T00:56:17;6.90;1.00
15217;DHT22;7711;46.634;14.318;2024-03-02T00:58:44;6.90;1.00
15217;DHT22;7711;46.634;14.318;2024-03-02T01:01:11;6.90;1.00
15217;DHT22;7711;46.634;14.318;2024-03-02T01:03:39;6.90;1.00
15217;DHT22;7711;46.634;14.318;2024-03-02T01:06:07;6.90;1.00
15217;DHT22;7711;46.634;14.318;2024-03-02T01:08:34;6.90;1.00
15217;DHT22;7711;46.634;14.318;2024-03-02T01:11:01;7.00;1.00
15217;DHT22;7711;46.634;14.318;2024-03-02T01:13:30;7.00;1.00
15217;DHT22;7711;46.634;14.318;2024-03-02T01:15:57;7.00;1.00
15217;DHT22;7711;46.634;14.318;2024-03-02T01:18:25;7.00;1.00
15217;DHT22;7711;46.634;14.318;2024-03-02T01:20:52;7.00;1.00
15217;DHT22;7711;46.634;14.318;2024-03-02T01:23:21;7.00;1.00
15217;DHT22;7711;46.634;14.318;2024-03-02T01:25:49;6.90;1.00
15217;DHT22;7711;46.634;14.318;2024-03-02T01:28:16;6.90;1.00
15217;DHT22;7711;46.634;14.318;2024-03-02T01:30:44;7.00;1.00
15217;DHT22;7711;46.634;14.318;2024-03-02T01:33:11;6.90;1.00
15217;DHT22;7711;46.634;14.318;2024-03-02T01:35:38;6.90;1.00
15217;DHT22;7711;46.634;14.318;2024-03-02T01:38:05;6.90;1.00
15217;DHT22;7711;46.634;14.318;2024-03-02T01:40:33;6.80;1.00
15217;DHT22;7711;46.634;14.318;2024-03-02T01:43:00;6.80;1.00
15217;DHT22;7711;46.634;14.318;2024-03-02T01:45:28;6.80;1.00
15217;DHT22;7711;46.634;14.318;2024-03-02T01:47:56;6.80;1.00
15217;DHT22;7711;46.634;14.318;2024-03-02T01:50:27;6.80;1.00
15217;DHT22;7711;46.634;14.318;2024-03-02T01:52:55;6.90;1.00
15217;DHT22;7711;46.634;14.318;2024-03-02T01:55:22;6.90;1.00
15217;DHT22;7711;46.634;14.318;2024-03-02T01:57:50;6.90;1.00
15217;DHT22;7711;46.634;14.318;2024-03-02T02:00:18;6.80;1.00
15217;DHT22;7711;46.634;14.318;2024-03-02T02:02:46;6.80;1.00
15217;DHT22;7711;46.634;14.318;2024-03-02T02:05:15;6.80;1.00
15217;DHT22;7711;46.634;14.318;2024-03-02T02:07:42;6.80;1.00
15217;DHT22;7711;46.634;14.318;2024-03-02T02:10:09;6.80;1.00
15217;DHT22;7711;46.634;14.318;2024-03-02T02:12:37;6.80;1.00
15217;DHT22;7711;46.634;14.318;2024-03-02T02:15:20;6.80;1.00
15217;DHT22;7711;46.634;14.318;2024-03-02T02:17:48;6.80;1.00
15217;DHT22;7711;46.634;14.318;2024-03-02T02:20:16;6.80;1.00
15217;DHT22;7711;46.634;14.318;2024-03-02T02:22:55;6.80;1.00
15217;DHT22;7711;46.634;14.318;2024-03-02T02:25:22;6.80;1.00
15217;DHT22;7711;46.634;14.318;2024-03-02T02:27:49;6.80;1.00
15217;DHT22;7711;46.634;14.318;2024-03-02T02:30:19;6.80;1.00
15217;DHT22;7711;46.634;14.318;2024-03-02T02:32:46;6.80;1.00
15217;DHT22;7711;46.634;14.318;2024-03-02T02:35:13;6.80;1.00
15217;DHT22;7711;46.634;14.318;2024-03-02T02:37:40;6.70;1.00
15217;DHT22;7711;46.634;14.318;2024-03-02T02:40:10;6.70;1.00
15217;DHT22;7711;46.634;14.318;2024-03-02T02:42:37;6.70;1.00
15217;DHT22;7711;46.634;14.318;2024-03-02T02:45:04;6.70;1.00
15217;DHT22;7711;46.634;14.318;2024-03-02T02:47:31;6.70;1.00
15217;DHT22;7711;46.634;14.318;2024-03-02T02:50:01;6.80;1.00
15217;DHT22;7711;46.634;14.318;2024-03-02T02:52:31;6.80;1.00
15217;DHT22;7711;46.634;14.318;2024-03-02T02:55:01;6.70;1.00
15217;DHT22;7711;46.634;14.318;2024-03-02T02:57:30;6.70;1.00
15217;DHT22;7711;46.634;14.318;2024-03-02T03:00:01;6.80;1.00
15217;DHT22;7711;46.634;14.318;2024-03-02T03:02:29;6.80;1.00
15217;DHT22;7711;46.634;14.318;2024-03-02T03:04:56;6.70;1.00
15217;DHT22;7711;46.634;14.318;2024-03-02T03:07:23;6.70;1.00
15217;DHT22;7711;46.634;14.318;2024-03-02T03:09:50;6.80;1.00
15217;DHT22;7711;46.634;14.318;2024-03-02T03:12:17;6.80;1.00
15217;DHT22;7711;46.634;14.318;2024-03-02T03:14:45;6.70;1.00
15217;DHT22;7711;46.634;14.318;2024-03-02T03:17:13;6.70;1.00
15217;DHT22;7711;46.634;14.318;2024-03-02T03:19:39;6.60;1.00
15217;DHT22;7711;46.634;14.318;2024-03-02T03:22:06;6.70;1.00
15217;DHT22;7711;46.634;14.318;2024-03-02T03:24:33;6.70;1.00
15217;DHT22;7711;46.634;14.318;2024-03-02T03:27:01;6.60;1.00
15217;DHT22;7711;46.634;14.318;2024-03-02T03:29:27;6.60;1.00
15217;DHT22;7711;46.634;14.318;2024-03-02T03:31:56;6.60;1.00
15217;DHT22;7711;46.634;14.318;2024-03-02T03:34:23;6.60;1.00
15217;DHT22;7711;46.634;14.318;2024-03-02T03:36:50;6.60;1.00
15217;DHT22;7711;46.634;14.318;2024-03-02T03:39:17;6.60;1.00
15217;DHT22;7711;46.634;14.318;2024-03-02T03:41:44;6.60;1.00
15217;DHT22;7711;46.634;14.318;2024-03-02T03:44:11;6.60;1.00
15217;DHT22;7711;46.634;14.318;2024-03-02T03:46:38;6.50;1.00
15217;DHT22;7711;46.634;14.318;2024-03-02T03:49:06;6.60;1.00
15217;DHT22;7711;46.634;14.318;2024-03-02T03:51:33;6.60;1.00
15217;DHT22;7711;46.634;14.318;2024-03-02T03:54:00;6.60;1.00
15217;DHT22;7711;46.634;14.318;2024-03-02T03:56:27;6.60;1.00
15217;DHT22;7711;46.634;14.318;2024-03-02T03:58:54;6.60;1.00
15217;DHT22;7711;46.634;14.318;2024-03-02T04:01:21;6.60;1.00
15217;DHT22;7711;46.634;14.318;2024-03-02T04:03:48;6.70;1.00
15217;DHT22;7711;46.634;14.318;2024-03-02T04:06:17;6.60;1.00
15217;DHT22;7711;46.634;14.318;2024-03-02T04:08:44;6.60;1.00
15217;DHT22;7711;46.634;14.318;2024-03-02T04:11:11;6.60;1.00
15217;DHT22;7711;46.634;14.318;2024-03-02T04:13:37;6.60;1.00
15217;DHT22;7711;46.634;14.318;2024-03-02T04:16:05;6.60;1.00
15217;DHT22;7711;46.634;14.318;2024-03-02T04:18:32;6.60;1.00
15217;DHT22;7711;46.634;14.318;2024-03-02T04:20:59;6.60;1.00
15217;DHT22;7711;46.634;14.318;2024-03-02T04:23:27;6.60;1.00
15217;DHT22;7711;46.634;14.318;2024-03-02T04:25:54;6.60;1.00
15217;DHT22;7711;46.634;14.318;2024-03-02T04:28:21;6.60;1.00
15217;DHT22;7711;46.634;14.318;2024-03-02T04:30:48;6.60;1.00
15217;DHT22;7711;46.634;14.318;2024-03-02T04:33:15;6.60;1.00
15217;DHT22;7711;46.634;14.318;2024-03-02T04:35:42;6.60;99.90
15217;DHT22;7711;46.634;14.318;2024-03-02T04:38:09;6.60;99.90
15217;DHT22;7711;46.634;14.318;2024-03-02T04:40:37;6.50;99.90
15217;DHT22;7711;46.634;14.318;2024-03-02T04:43:04;6.60;1.00
15217;DHT22;7711;46.634;14.318;2024-03-02T04:45:31;6.60;99.90
15217;DHT22;7711;46.634;14.318;2024-03-02T04:47:58;6.50;99.90
15217;DHT22;7711;46.634;14.318;2024-03-02T04:50:25;6.60;99.90
15217;DHT22;7711;46.634;14.318;2024-03-02T04:52:51;6.60;99.90
15217;DHT22;7711;46.634;14.318;2024-03-02T04:55:18;6.60;99.90
15217;DHT22;7711;46.634;14.318;2024-03-02T04:58:12;6.50;99.90
15217;DHT22;7711;46.634;14.318;2024-03-02T05:00:39;6.40;99.90
15217;DHT22;7711;46.634;14.318;2024-03-02T05:03:06;6.50;99.90
15217;DHT22;7711;46.634;14.318;2024-03-02T05:05:33;6.50;99.90
15217;DHT22;7711;46.634;14.318;2024-03-02T05:08:00;6.50;99.90
15217;DHT22;7711;46.634;14.318;2024-03-02T05:10:28;6.50;99.90
15217;DHT22;7711;46.634;14.318;2024-03-02T05:12:55;6.50;99.90
15217;DHT22;7711;46.634;14.318;2024-03-02T05:15:26;6.50;99.90
15217;DHT22;7711;46.634;14.318;2024-03-02T05:17:53;6.60;99.90
15217;DHT22;7711;46.634;14.318;2024-03-02T05:20:20;6.60;99.90
15217;DHT22;7711;46.634;14.318;2024-03-02T05:22:46;6.60;99.90
15217;DHT22;7711;46.634;14.318;2024-03-02T05:25:14;6.50;99.90
15217;DHT22;7711;46.634;14.318;2024-03-02T05:27:41;6.60;99.90
15217;DHT22;7711;46.634;14.318;2024-03-02T05:30:09;6.60;31.80
15217;DHT22;7711;46.634;14.318;2024-03-02T05:32:37;6.50;1.00
15217;DHT22;7711;46.634;14.318;2024-03-02T05:35:05;6.50;46.30
15217;DHT22;7711;46.634;14.318;2024-03-02T05:37:33;6.50;1.00
15217;DHT22;7711;46.634;14.318;2024-03-02T05:40:00;6.50;1.00
15217;DHT22;7711;46.634;14.318;2024-03-02T05:42:28;6.50;23.10
15217;DHT22;7711;46.634;14.318;2024-03-02T05:44:55;6.50;99.90
15217;DHT22;7711;46.634;14.318;2024-03-02T05:47:22;6.60;99.90
15217;DHT22;7711;46.634;14.318;2024-03-02T05:49:50;6.50;99.90
15217;DHT22;7711;46.634;14.318;2024-03-02T05:52:17;6.50;73.80
15217;DHT22;7711;46.634;14.318;2024-03-02T05:54:44;6.50;99.90
15217;DHT22;7711;46.634;14.318;2024-03-02T05:57:11;6.50;99.90
15217;DHT22;7711;46.634;14.318;2024-03-02T05:59:57;6.50;76.30
15217;DHT22;7711;46.634;14.318;2024-03-02T06:02:24;6.60;99.90
15217;DHT22;7711;46.634;14.318;2024-03-02T06:04:54;6.60;99.90
15217;DHT22;7711;46.634;14.318;2024-03-02T06:07:21;6.60;99.90
15217;DHT22;7711;46.634;14.318;2024-03-02T06:09:48;6.60;99.90
15217;DHT22;7711;46.634;14.318;2024-03-02T06:12:17;6.60;99.90
15217;DHT22;7711;46.634;14.318;2024-03-02T06:14:44;6.60;1.00
15217;DHT22;7711;46.634;14.318;2024-03-02T06:17:11;6.60;1.00
15217;DHT22;7711;46.634;14.318;2024-03-02T06:19:39;6.60;1.00
15217;DHT22;7711;46.634;14.318;2024-03-02T06:22:07;6.60;1.00
15217;DHT22;7711;46.634;14.318;2024-03-02T06:24:36;6.70;1.00
15217;DHT22;7711;46.634;14.318;2024-03-02T06:27:03;6.70;1.00
15217;DHT22;7711;46.634;14.318;2024-03-02T06:29:32;6.60;1.00
15217;DHT22;7711;46.634;14.318;2024-03-02T06:31:59;6.70;1.00
15217;DHT22;7711;46.634;14.318;2024-03-02T06:34:26;6.70;1.00
15217;DHT22;7711;46.634;14.318;2024-03-02T06:36:53;6.60;1.00
15217;DHT22;7711;46.634;14.318;2024-03-02T06:39:22;6.70;1.00
15217;DHT22;7711;46.634;14.318;2024-03-02T06:41:49;6.60;1.00
15217;DHT22;7711;46.634;14.318;2024-03-02T06:44:16;6.70;1.00
15217;DHT22;7711;46.634;14.318;2024-03-02T06:46:43;6.70;1.00
15217;DHT22;7711;46.634;14.318;2024-03-02T06:49:10;6.60;1.00
15217;DHT22;7711;46.634;14.318;2024-03-02T06:51:37;6.70;1.00
15217;DHT22;7711;46.634;14.318;2024-03-02T06:54:04;6.60;1.00
15217;DHT22;7711;46.634;14.318;2024-03-02T06:56:33;6.60;1.00
15217;DHT22;7711;46.634;14.318;2024-03-02T06:59:00;6.70;1.00
15217;DHT22;7711;46.634;14.318;2024-03-02T07:01:27;6.70;1.00
15217;DHT22;7711;46.634;14.318;2024-03-02T07:03:54;6.70;99.90
15217;DHT22;7711;46.634;14.318;2024-03-02T07:06:20;6.80;1.00
15217;DHT22;7711;46.634;14.318;2024-03-02T07:08:48;6.90;1.00
15217;DHT22;7711;46.634;14.318;2024-03-02T07:11:15;6.90;99.90
15217;DHT22;7711;46.634;14.318;2024-03-02T07:13:43;7.00;99.90
15217;DHT22;7711;46.634;14.318;2024-03-02T07:16:10;7.00;99.90
15217;DHT22;7711;46.634;14.318;2024-03-02T07:18:54;7.10;99.90
15217;DHT22;7711;46.634;14.318;2024-03-02T07:21:22;7.20;1.00
15217;DHT22;7711;46.634;14.318;2024-03-02T07:23:49;7.40;1.00
15217;DHT22;7711;46.634;14.318;2024-03-02T07:26:17;7.40;1.00
15217;DHT22;7711;46.634;14.318;2024-03-02T07:28:47;7.50;1.00
15217;DHT22;7711;46.634;14.318;2024-03-02T07:31:15;7.60;1.00
15217;DHT22;7711;46.634;14.318;2024-03-02T07:33:44;7.50;99.90
15217;DHT22;7711;46.634;14.318;2024-03-02T07:36:12;7.60;99.90
15217;DHT22;7711;46.634;14.318;2024-03-02T07:38:39;7.50;99.90
15217;DHT22;7711;46.634;14.318;2024-03-02T07:41:06;7.70;99.90
15217;DHT22;7711;46.634;14.318;2024-03-02T07:43:34;7.80;99.90
15217;DHT22;7711;46.634;14.318;2024-03-02T07:46:03;7.90;99.90
15217;DHT22;7711;46.634;14.318;2024-03-02T07:48:30;8.00;99.90
15217;DHT22;7711;46.634;14.318;2024-03-02T07:50:57;7.90;16.70
15217;DHT22;7711;46.634;14.318;2024-03-02T07:53:24;8.00;1.00
15217;DHT22;7711;46.634;14.318;2024-03-02T07:55:51;7.80;1.00
15217;DHT22;7711;46.634;14.318;2024-03-02T07:58:19;7.70;1.00
15217;DHT22;7711;46.634;14.318;2024-03-02T08:00:47;7.60;11.30
15217;DHT22;7711;46.634;14.318;2024-03-02T08:03:15;7.70;76.40
15217;DHT22;7711;46.634;14.318;2024-03-02T08:05:42;7.70;16.40
15217;DHT22;7711;46.634;14.318;2024-03-02T08:08:11;7.50;24.40
15217;DHT22;7711;46.634;14.318;2024-03-02T08:10:38;7.60;99.90
15217;DHT22;7711;46.634;14.318;2024-03-02T08:13:05;7.60;99.90
15217;DHT22;7711;46.634;14.318;2024-03-02T08:15:32;7.60;99.90
15217;DHT22;7711;46.634;14.318;2024-03-02T08:17:59;7.70;99.90
15217;DHT22;7711;46.634;14.318;2024-03-02T08:20:28;7.80;99.90
15217;DHT22;7711;46.634;14.318;2024-03-02T08:22:55;7.90;99.90
15217;DHT22;7711;46.634;14.318;2024-03-02T08:25:22;7.90;55.80
15217;DHT22;7711;46.634;14.318;2024-03-02T08:27:49;7.90;1.00
15217;DHT22;7711;46.634;14.318;2024-03-02T08:30:16;8.00;21.40
15217;DHT22;7711;46.634;14.318;2024-03-02T08:32:44;8.00;1.00
15217;DHT22;7711;46.634;14.318;2024-03-02T08:35:13;8.00;1.00
15217;DHT22;7711;46.634;14.318;2024-03-02T08:37:41;8.00;1.00
15217;DHT22;7711;46.634;14.318;2024-03-02T08:40:09;7.90;1.00
15217;DHT22;7711;46.634;14.318;2024-03-02T08:42:37;7.90;23.20
15217;DHT22;7711;46.634;14.318;2024-03-02T08:45:05;8.00;39.80
15217;DHT22;7711;46.634;14.318;2024-03-02T08:47:32;8.10;1.00
15217;DHT22;7711;46.634;14.318;2024-03-02T08:49:59;8.10;1.00
15217;DHT22;7711;46.634;14.318;2024-03-02T08:52:27;8.10;1.00
15217;DHT22;7711;46.634;14.318;2024-03-02T08:54:55;8.10;1.00
15217;DHT22;7711;46.634;14.318;2024-03-02T08:57:22;8.10;1.00
15217;DHT22;7711;46.634;14.318;2024-03-02T08:59:49;8.00;1.00
15217;DHT22;7711;46.634;14.318;2024-03-02T09:02:16;8.20;1.00
15217;DHT22;7711;46.634;14.318;2024-03-02T09:04:43;8.30;1.00
15217;DHT22;7711;46.634;14.318;2024-03-02T09:07:11;8.10;1.00
15217;DHT22;7711;46.634;14.318;2024-03-02T09:09:38;8.20;1.00
15217;DHT22;7711;46.634;14.318;2024-03-02T09:12:07;8.20;1.00
15217;DHT22;7711;46.634;14.318;2024-03-02T09:14:35;8.20;1.00
15217;DHT22;7711;46.634;14.318;2024-03-02T09:17:03;8.50;1.00
15217;DHT22;7711;46.634;14.318;2024-03-02T09:19:30;8.70;1.00
15217;DHT22;7711;46.634;14.318;2024-03-02T09:21:58;9.30;1.00
15217;DHT22;7711;46.634;14.318;2024-03-02T09:24:25;9.60;1.00
15217;DHT22;7711;46.634;14.318;2024-03-02T09:26:52;9.90;1.00
15217;DHT22;7711;46.634;14.318;2024-03-02T09:29:20;10.20;1.00
15217;DHT22;7711;46.634;14.318;2024-03-02T09:31:46;10.40;1.00
15217;DHT22;7711;46.634;14.318;2024-03-02T09:34:13;10.30;99.90
15217;DHT22;7711;46.634;14.318;2024-03-02T09:36:41;10.30;99.90
15217;DHT22;7711;46.634;14.318;2024-03-02T09:39:08;10.60;99.90
15217;DHT22;7711;46.634;14.318;2024-03-02T09:41:36;10.30;99.90
15217;DHT22;7711;46.634;14.318;2024-03-02T09:44:04;10.30;99.90
15217;DHT22;7711;46.634;14.318;2024-03-02T09:46:33;10.20;99.90
15217;DHT22;7711;46.634;14.318;2024-03-02T09:49:02;10.40;99.90
15217;DHT22;7711;46.634;14.318;2024-03-02T09:51:29;10.20;99.90
15217;DHT22;7711;46.634;14.318;2024-03-02T09:53:56;10.50;99.90
15217;DHT22;7711;46.634;14.318;2024-03-02T09:56:23;10.70;99.90
15217;DHT22;7711;46.634;14.318;2024-03-02T09:58:50;11.00;99.90
15217;DHT22;7711;46.634;14.318;2024-03-02T10:01:17;11.30;99.90
15217;DHT22;7711;46.634;14.318;2024-03-02T10:03:46;11.10;99.90
15217;DHT22;7711;46.634;14.318;2024-03-02T10:06:19;10.60;99.90
15217;DHT22;7711;46.634;14.318;2024-03-02T10:08:46;10.40;99.90
15217;DHT22;7711;46.634;14.318;2024-03-02T10:11:26;10.20;99.90
15217;DHT22;7711;46.634;14.318;2024-03-02T10:14:04;10.00;99.90
15217;DHT22;7711;46.634;14.318;2024-03-02T10:16:34;10.10;99.90
15217;DHT22;7711;46.634;14.318;2024-03-02T10:19:15;10.00;99.90
15217;DHT22;7711;46.634;14.318;2024-03-02T10:21:43;10.00;99.90
15217;DHT22;7711;46.634;14.318;2024-03-02T10:24:10;10.10;99.90
15217;DHT22;7711;46.634;14.318;2024-03-02T10:26:38;10.00;99.90
15217;DHT22;7711;46.634;14.318;2024-03-02T10:29:05;9.80;99.90
15217;DHT22;7711;46.634;14.318;2024-03-02T10:31:32;9.50;99.90
15217;DHT22;7711;46.634;14.318;2024-03-02T10:33:59;9.40;99.90
15217;DHT22;7711;46.634;14.318;2024-03-02T10:36:29;9.50;99.90
15217;DHT22;7711;46.634;14.318;2024-03-02T10:38:56;9.70;99.90
15217;DHT22;7711;46.634;14.318;2024-03-02T10:41:26;9.80;99.90
15217;DHT22;7711;46.634;14.318;2024-03-02T10:43:53;10.00;99.90
15217;DHT22;7711;46.634;14.318;2024-03-02T10:46:28;10.50;99.90
15217;DHT22;7711;46.634;14.318;2024-03-02T10:48:55;10.50;99.90
15217;DHT22;7711;46.634;14.318;2024-03-02T10:51:24;10.70;99.90
15217;DHT22;7711;46.634;14.318;2024-03-02T10:53:52;10.60;99.90
15217;DHT22;7711;46.634;14.318;2024-03-02T10:56:24;10.00;99.90
15217;DHT22;7711;46.634;14.318;2024-03-02T10:59:01;10.20;99.90
15217;DHT22;7711;46.634;14.318;2024-03-02T11:01:29;10.20;99.90
15217;DHT22;7711;46.634;14.318;2024-03-02T11:03:58;10.50;99.90
15217;DHT22;7711;46.634;14.318;2024-03-02T11:06:28;10.80;99.90
15217;DHT22;7711;46.634;14.318;2024-03-02T11:09:00;10.80;99.90
15217;DHT22;7711;46.634;14.318;2024-03-02T11:11:37;10.70;99.90
15217;DHT22;7711;46.634;14.318;2024-03-02T11:14:07;10.90;99.90
15217;DHT22;7711;46.634;14.318;2024-03-02T11:16:38;10.80;99.90
15217;DHT22;7711;46.634;14.318;2024-03-02T11:19:10;10.50;99.90
15217;DHT22;7711;46.634;14.318;2024-03-02T11:21:38;10.60;99.90
15217;DHT22;7711;46.634;14.318;2024-03-02T11:24:31;11.00;99.90
15217;DHT22;7711;46.634;14.318;2024-03-02T11:27:02;11.30;99.90
15217;DHT22;7711;46.634;14.318;2024-03-02T11:29:46;11.10;99.90
15217;DHT22;7711;46.634;14.318;2024-03-02T11:32:20;11.30;99.90
15217;DHT22;7711;46.634;14.318;2024-03-02T11:34:50;10.60;99.90
15217;DHT22;7711;46.634;14.318;2024-03-02T11:37:19;10.70;99.90
15217;DHT22;7711;46.634;14.318;2024-03-02T11:39:49;11.00;99.90
15217;DHT22;7711;46.634;14.318;2024-03-02T11:42:17;10.90;99.90
15217;DHT22;7711;46.634;14.318;2024-03-02T11:44:46;11.40;99.90
15217;DHT22;7711;46.634;14.318;2024-03-02T11:47:15;11.30;99.90
15217;DHT22;7711;46.634;14.318;2024-03-02T11:49:43;11.10;99.90
15217;DHT22;7711;46.634;14.318;2024-03-02T11:52:12;10.90;99.90
15217;DHT22;7711;46.634;14.318;2024-03-02T11:54:40;10.50;99.90
15217;DHT22;7711;46.634;14.318;2024-03-02T11:57:16;10.40;99.90
15217;DHT22;7711;46.634;14.318;2024-03-02T11:59:43;10.50;99.90
15217;DHT22;7711;46.634;14.318;2024-03-02T12:02:19;10.70;99.90
15217;DHT22;7711;46.634;14.318;2024-03-02T12:04:47;10.20;99.90
15217;DHT22;7711;46.634;14.318;2024-03-02T12:07:20;10.40;99.90
15217;DHT22;7711;46.634;14.318;2024-03-02T12:09:48;10.40;99.90
15217;DHT22;7711;46.634;14.318;2024-03-02T12:12:17;10.50;99.90
15217;DHT22;7711;46.634;14.318;2024-03-02T12:14:50;10.80;99.90
15217;DHT22;7711;46.634;14.318;2024-03-02T12:17:18;11.10;99.90
15217;DHT22;7711;46.634;14.318;2024-03-02T12:19:45;11.30;99.90
15217;DHT22;7711;46.634;14.318;2024-03-02T12:22:12;11.40;99.90
15217;DHT22;7711;46.634;14.318;2024-03-02T12:24:41;11.10;99.90
15217;DHT22;7711;46.634;14.318;2024-03-02T12:27:11;11.20;99.90
15217;DHT22;7711;46.634;14.318;2024-03-02T12:29:40;11.50;99.90
15217;DHT22;7711;46.634;14.318;2024-03-02T12:32:07;11.50;99.90
15217;DHT22;7711;46.634;14.318;2024-03-02T12:34:35;11.50;99.90
15217;DHT22;7711;46.634;14.318;2024-03-02T12:37:02;11.30;99.90
15217;DHT22;7711;46.634;14.318;2024-03-02T12:39:29;11.80;99.90
15217;DHT22;7711;46.634;14.318;2024-03-02T12:41:58;13.00;99.90
15217;DHT22;7711;46.634;14.318;2024-03-02T12:44:25;13.10;99.90
15217;DHT22;7711;46.634;14.318;2024-03-02T12:46:54;13.80;99.90
15217;DHT22;7711;46.634;14.318;2024-03-02T12:49:22;13.30;99.90
15217;DHT22;7711;46.634;14.318;2024-03-02T12:51:49;13.00;99.90
15217;DHT22;7711;46.634;14.318;2024-03-02T12:54:22;13.30;99.90
15217;DHT22;7711;46.634;14.318;2024-03-02T12:56:51;13.90;99.90
15217;DHT22;7711;46.634;14.318;2024-03-02T12:59:20;13.70;99.90
15217;DHT22;7711;46.634;14.318;2024-03-02T13:01:51;13.80;99.90
15217;DHT22;7711;46.634;14.318;2024-03-02T13:04:23;14.20;99.90
15217;DHT22;7711;46.634;14.318;2024-03-02T13:06:51;14.20;99.90
15217;DHT22;7711;46.634;14.318;2024-03-02T13:09:19;14.10;99.90
15217;DHT22;7711;46.634;14.318;2024-03-02T13:11:46;13.30;99.90
15217;DHT22;7711;46.634;14.318;2024-03-02T13:14:13;13.10;99.90
15217;DHT22;7711;46.634;14.318;2024-03-02T13:16:40;13.70;99.90
15217;DHT22;7711;46.634;14.318;2024-03-02T13:19:07;13.60;99.90
15217;DHT22;7711;46.634;14.318;2024-03-02T13:21:36;14.00;99.90
15217;DHT22;7711;46.634;14.318;2024-03-02T13:24:03;15.20;99.90
15217;DHT22;7711;46.634;14.318;2024-03-02T13:26:30;16.10;99.90
15217;DHT22;7711;46.634;14.318;2024-03-02T13:28:58;15.90;99.90
15217;DHT22;7711;46.634;14.318;2024-03-02T13:31:25;16.10;99.90
15217;DHT22;7711;46.634;14.318;2024-03-02T13:33:52;17.60;99.90
15217;DHT22;7711;46.634;14.318;2024-03-02T13:36:19;19.00;99.90
15217;DHT22;7711;46.634;14.318;2024-03-02T13:38:48;19.70;99.90
15217;DHT22;7711;46.634;14.318;2024-03-02T13:41:15;20.10;99.90
15217;DHT22;7711;46.634;14.318;2024-03-02T13:43:43;20.00;99.90
15217;DHT22;7711;46.634;14.318;2024-03-02T13:46:11;20.60;99.90
15217;DHT22;7711;46.634;14.318;2024-03-02T13:48:38;19.90;99.90
15217;DHT22;7711;46.634;14.318;2024-03-02T13:51:06;19.60;99.90
15217;DHT22;7711;46.634;14.318;2024-03-02T13:53:33;19.80;99.90
15217;DHT22;7711;46.634;14.318;2024-03-02T13:56:02;20.40;99.90
15217;DHT22;7711;46.634;14.318;2024-03-02T13:58:31;19.80;99.90
15217;DHT22;7711;46.634;14.318;2024-03-02T14:00:58;19.70;99.90
15217;DHT22;7711;46.634;14.318;2024-03-02T14:03:27;19.00;99.90
15217;DHT22;7711;46.634;14.318;2024-03-02T14:05:55;19.30;99.90
15217;DHT22;7711;46.634;14.318;2024-03-02T14:08:22;18.70;99.90
15217;DHT22;7711;46.634;14.318;2024-03-02T14:10:49;19.10;99.90
15217;DHT22;7711;46.634;14.318;2024-03-02T14:13:18;19.80;99.90
15217;DHT22;7711;46.634;14.318;2024-03-02T14:15:45;19.10;99.90
15217;DHT22;7711;46.634;14.318;2024-03-02T14:18:12;18.60;99.90
15217;DHT22;7711;46.634;14.318;2024-03-02T14:20:40;18.40;99.90
15217;DHT22;7711;46.634;14.318;2024-03-02T14:23:07;19.00;99.90
15217;DHT22;7711;46.634;14.318;2024-03-02T14:25:35;19.00;99.90
15217;DHT22;7711;46.634;14.318;2024-03-02T14:28:03;18.90;99.90
15217;DHT22;7711;46.634;14.318;2024-03-02T14:30:31;18.20;99.90
15217;DHT22;7711;46.634;14.318;2024-03-02T14:32:59;17.10;99.90
15217;DHT22;7711;46.634;14.318;2024-03-02T14:35:26;16.50;99.90
15217;DHT22;7711;46.634;14.318;2024-03-02T14:37:54;16.90;99.90
15217;DHT22;7711;46.634;14.318;2024-03-02T14:40:24;18.20;99.90
15217;DHT22;7711;46.634;14.318;2024-03-02T14:42:53;19.30;99.90
15217;DHT22;7711;46.634;14.318;2024-03-02T14:45:20;18.20;99.90
15217;DHT22;7711;46.634;14.318;2024-03-02T14:47:48;17.50;99.90
15217;DHT22;7711;46.634;14.318;2024-03-02T14:50:16;18.00;99.90
15217;DHT22;7711;46.634;14.318;2024-03-02T14:52:44;18.90;99.90
15217;DHT22;7711;46.634;14.318;2024-03-02T14:55:12;19.40;99.90
15217;DHT22;7711;46.634;14.318;2024-03-02T14:57:39;18.20;99.90
15217;DHT22;7711;46.634;14.318;2024-03-02T15:00:07;18.00;99.90
15217;DHT22;7711;46.634;14.318;2024-03-02T15:02:34;18.80;99.90
15217;DHT22;7711;46.634;14.318;2024-03-02T15:05:03;17.00;99.90
15217;DHT22;7711;46.634;14.318;2024-03-02T15:07:31;16.20;99.90
15217;DHT22;7711;46.634;14.318;2024-03-02T15:09:58;15.80;99.90
15217;DHT22;7711;46.634;14.318;2024-03-02T15:12:25;15.70;99.90
15217;DHT22;7711;46.634;14.318;2024-03-02T15:14:53;15.60;99.90
15217;DHT22;7711;46.634;14.318;2024-03-02T15:17:21;14.90;99.90
15217;DHT22;7711;46.634;14.318;2024-03-02T15:19:48;14.50;99.90
15217;DHT22;7711;46.634;14.318;2024-03-02T15:22:16;14.30;99.90
15217;DHT22;7711;46.634;14.318;2024-03-02T15:24:44;13.90;99.90
15217;DHT22;7711;46.634;14.318;2024-03-02T15:27:12;13.60;99.90
15217;DHT22;7711;46.634;14.318;2024-03-02T15:29:40;13.40;99.90
15217;DHT22;7711;46.634;14.318;2024-03-02T15:32:07;13.30;99.90
15217;DHT22;7711;46.634;14.318;2024-03-02T15:34:35;13.20;99.90
15217;DHT22;7711;46.634;14.318;2024-03-02T15:37:02;13.00;99.90
15217;DHT22;7711;46.634;14.318;2024-03-02T15:39:32;12.70;99.90
15217;DHT22;7711;46.634;14.318;2024-03-02T15:41:59;12.50;99.90
15217;DHT22;7711;46.634;14.318;2024-03-02T15:44:27;12.60;99.90
15217;DHT22;7711;46.634;14.318;2024-03-02T15:46:54;12.40;99.90
15217;DHT22;7711;46.634;14.318;2024-03-02T15:49:21;12.20;99.90
15217;DHT22;7711;46.634;14.318;2024-03-02T15:51:49;12.20;99.90
15217;DHT22;7711;46.634;14.318;2024-03-02T15:54:16;12.20;99.90